sensor_id;sensor_type;location;lat;lon;timestamp;P1;durP1;ratioP1;P2;durP2;ratioP2
6527;SDS011;64597;42.664;23.256;2023-02-20T00:00:25;7.38;;;4.75;;
6527;SDS011;64597;42.664;23.256;2023-02-20T00:02:53;8.85;;;5.53;;
6527;SDS011;64597;42.664;23.256;2023-02-20T00:05:19;8.88;;;5.03;;
6527;SDS011;64597;42.664;23.256;2023-02-20T00:07:44;7.68;;;5.07;;
6527;SDS011;64597;42.664;23.256;2023-02-20T00:10:10;10.45;;;5.75;;
6527;SDS011;64597;42.664;23.256;2023-02-20T00:12:37;13.45;;;5.40;;
6527;SDS011;64597;42.664;23.256;2023-02-20T00:15:03;10.88;;;5.88;;
6527;SDS011;64597;42.664;23.256;2023-02-20T00:17:29;9.63;;;5.40;;
6527;SDS011;64597;42.664;23.256;2023-02-20T00:19:54;11.45;;;5.32;;
6527;SDS011;64597;42.664;23.256;2023-02-20T00:22:20;9.07;;;5.20;;
6527;SDS011;64597;42.664;23.256;2023-02-20T00:24:46;9.20;;;5.55;;
6527;SDS011;64597;42.664;23.256;2023-02-20T00:27:12;9.48;;;5.22;;
6527;SDS011;64597;42.664;23.256;2023-02-20T00:29:37;10.55;;;5.45;;
6527;SDS011;64597;42.664;23.256;2023-02-20T00:32:04;9.07;;;5.97;;
6527;SDS011;64597;42.664;23.256;2023-02-20T00:34:29;8.70;;;5.32;;
6527;SDS011;64597;42.664;23.256;2023-02-20T00:36:55;9.02;;;5.43;;
6527;SDS011;64597;42.664;23.256;2023-02-20T00:39:20;9.23;;;5.40;;
6527;SDS011;64597;42.664;23.256;2023-02-20T00:41:46;9.05;;;5.22;;
6527;SDS011;64597;42.664;23.256;2023-02-20T00:44:11;10.70;;;5.30;;
6527;SDS011;64597;42.664;23.256;2023-02-20T00:46:37;9.02;;;4.90;;
6527;SDS011;64597;42.664;23.256;2023-02-20T00:49:03;8.25;;;5.63;;
6527;SDS011;64597;42.664;23.256;2023-02-20T00:51:28;8.48;;;5.15;;
6527;SDS011;64597;42.664;23.256;2023-02-20T00:53:55;7.72;;;5.32;;
6527;SDS011;64597;42.664;23.256;2023-02-20T00:56:21;7.90;;;5.60;;
6527;SDS011;64597;42.664;23.256;2023-02-20T00:58:46;7.38;;;4.65;;
6527;SDS011;64597;42.664;23.256;2023-02-20T01:01:12;7.30;;;4.53;;
6527;SDS011;64597;42.664;23.256;2023-02-20T01:03:39;9.02;;;4.70;;
6527;SDS011;64597;42.664;23.256;2023-02-20T01:06:04;7.63;;;4.43;;
6527;SDS011;64597;42.664;23.256;2023-02-20T01:08:30;8.20;;;5.40;;
6527;SDS011;64597;42.664;23.256;2023-02-20T01:10:55;7.78;;;4.93;;
6527;SDS011;64597;42.664;23.256;2023-02-20T01:13:21;9.95;;;5.15;;
6527;SDS011;64597;42.664;23.256;2023-02-20T01:15:46;7.28;;;5.18;;
6527;SDS011;64597;42.664;23.256;2023-02-20T01:18:11;7.88;;;4.70;;
6527;SDS011;64597;42.664;23.256;2023-02-20T01:20:37;9.00;;;5.05;;
6527;SDS011;64597;42.664;23.256;2023-02-20T01:23:02;9.23;;;5.50;;
6527;SDS011;64597;42.664;23.256;2023-02-20T01:25:28;10.18;;;6.03;;
6527;SDS011;64597;42.664;23.256;2023-02-20T01:27:54;6.68;;;4.95;;
6527;SDS011;64597;42.664;23.256;2023-02-20T01:30:19;8.55;;;5.00;;
6527;SDS011;64597;42.664;23.256;2023-02-20T01:32:45;8.27;;;5.53;;
6527;SDS011;64597;42.664;23.256;2023-02-20T01:35:10;9.57;;;5.57;;
6527;SDS011;64597;42.664;23.256;2023-02-20T01:37:36;8.73;;;5.07;;
6527;SDS011;64597;42.664;23.256;2023-02-20T01:40:02;10.65;;;5.63;;
6527;SDS011;64597;42.664;23.256;2023-02-20T01:42:29;9.20;;;6.28;;
6527;SDS011;64597;42.664;23.256;2023-02-20T01:45:14;9.40;;;5.22;;
6527;SDS011;64597;42.664;23.256;2023-02-20T01:47:45;9.55;;;5.13;;
6527;SDS011;64597;42.664;23.256;2023-02-20T01:50:12;11.10;;;6.97;;
6527;SDS011;64597;42.664;23.256;2023-02-20T01:52:39;8.73;;;6.25;;
6527;SDS011;64597;42.664;23.256;2023-02-20T01:55:12;11.52;;;6.50;;
6527;SDS011;64597;42.664;23.256;2023-02-20T01:57:42;8.40;;;5.70;;
6527;SDS011;64597;42.664;23.256;2023-02-20T02:00:15;9.05;;;6.15;;
6527;SDS011;64597;42.664;23.256;2023-02-20T02:02:48;9.27;;;5.65;;
6527;SDS011;64597;42.664;23.256;2023-02-20T02:05:30;9.85;;;5.72;;
6527;SDS011;64597;42.664;23.256;2023-02-20T02:07:58;10.23;;;5.70;;
6527;SDS011;64597;42.664;23.256;2023-02-20T02:10:28;8.52;;;4.80;;
6527;SDS011;64597;42.664;23.256;2023-02-20T02:12:57;8.00;;;4.20;;
6527;SDS011;64597;42.664;23.256;2023-02-20T02:15:23;8.10;;;4.38;;
6527;SDS011;64597;42.664;23.256;2023-02-20T02:17:58;5.88;;;3.00;;
6527;SDS011;64597;42.664;23.256;2023-02-20T02:20:53;5.55;;;3.15;;
6527;SDS011;64597;42.664;23.256;2023-02-20T02:37:47;2.50;;;1.63;;
6527;SDS011;64597;42.664;23.256;2023-02-20T02:43:39;2.88;;;1.60;;
6527;SDS011;64597;42.664;23.256;2023-02-20T02:46:13;3.45;;;1.80;;
6527;SDS011;64597;42.664;23.256;2023-02-20T02:49:11;2.03;;;1.30;;
6527;SDS011;64597;42.664;23.256;2023-02-20T02:51:46;2.85;;;1.50;;
6527;SDS011;64597;42.664;23.256;2023-02-20T02:54:15;3.22;;;1.90;;
6527;SDS011;64597;42.664;23.256;2023-02-20T02:56:53;3.70;;;1.30;;
6527;SDS011;64597;42.664;23.256;2023-02-20T02:59:43;2.58;;;1.75;;
6527;SDS011;64597;42.664;23.256;2023-02-20T03:02:12;3.35;;;1.80;;
6527;SDS011;64597;42.664;23.256;2023-02-20T03:04:39;2.72;;;1.60;;
6527;SDS011;64597;42.664;23.256;2023-02-20T03:07:12;3.10;;;1.85;;
6527;SDS011;64597;42.664;23.256;2023-02-20T03:09:41;2.88;;;1.50;;
6527;SDS011;64597;42.664;23.256;2023-02-20T03:12:12;2.83;;;1.50;;
6527;SDS011;64597;42.664;23.256;2023-02-20T03:15:22;2.55;;;1.48;;
6527;SDS011;64597;42.664;23.256;2023-02-20T03:18:01;2.20;;;1.50;;
6527;SDS011;64597;42.664;23.256;2023-02-20T03:20:39;3.47;;;1.23;;
6527;SDS011;64597;42.664;23.256;2023-02-20T03:23:08;2.22;;;1.50;;
6527;SDS011;64597;42.664;23.256;2023-02-20T03:25:47;1.90;;;1.08;;
6527;SDS011;64597;42.664;23.256;2023-02-20T03:28:20;2.38;;;1.45;;
6527;SDS011;64597;42.664;23.256;2023-02-20T03:33:21;3.10;;;1.25;;
6527;SDS011;64597;42.664;23.256;2023-02-20T03:36:13;2.42;;;1.48;;
6527;SDS011;64597;42.664;23.256;2023-02-20T03:39:05;2.97;;;1.20;;
6527;SDS011;64597;42.664;23.256;2023-02-20T03:41:55;2.08;;;1.70;;
6527;SDS011;64597;42.664;23.256;2023-02-20T03:44:39;3.08;;;1.40;;
6527;SDS011;64597;42.664;23.256;2023-02-20T03:47:06;5.15;;;1.45;;
6527;SDS011;64597;42.664;23.256;2023-02-20T03:49:35;1.85;;;1.25;;
6527;SDS011;64597;42.664;23.256;2023-02-20T03:52:05;2.05;;;1.50;;
6527;SDS011;64597;42.664;23.256;2023-02-20T03:54:31;2.10;;;1.17;;
6527;SDS011;64597;42.664;23.256;2023-02-20T03:57:01;1.63;;;1.10;;
6527;SDS011;64597;42.664;23.256;2023-02-20T04:00:02;1.77;;;1.23;;
6527;SDS011;64597;42.664;23.256;2023-02-20T04:02:35;1.80;;;1.15;;
6527;SDS011;64597;42.664;23.256;2023-02-20T04:05:05;2.15;;;1.58;;
6527;SDS011;64597;42.664;23.256;2023-02-20T04:10:36;2.13;;;1.30;;
6527;SDS011;64597;42.664;23.256;2023-02-20T04:13:07;2.53;;;1.38;;
6527;SDS011;64597;42.664;23.256;2023-02-20T04:15:33;1.67;;;0.90;;
6527;SDS011;64597;42.664;23.256;2023-02-20T04:18:17;2.35;;;1.33;;
6527;SDS011;64597;42.664;23.256;2023-02-20T04:20:45;1.80;;;1.10;;
6527;SDS011;64597;42.664;23.256;2023-02-20T04:23:17;2.50;;;1.30;;
6527;SDS011;64597;42.664;23.256;2023-02-20T04:28:16;2.53;;;1.25;;
6527;SDS011;64597;42.664;23.256;2023-02-20T04:30:42;2.15;;;1.35;;
6527;SDS011;64597;42.664;23.256;2023-02-20T04:33:09;4.45;;;1.77;;
6527;SDS011;64597;42.664;23.256;2023-02-20T04:35:36;2.10;;;1.10;;
6527;SDS011;64597;42.664;23.256;2023-02-20T04:38:02;3.80;;;1.52;;
6527;SDS011;64597;42.664;23.256;2023-02-20T04:40:27;2.28;;;1.55;;
6527;SDS011;64597;42.664;23.256;2023-02-20T04:42:53;2.00;;;1.15;;
6527;SDS011;64597;42.664;23.256;2023-02-20T04:45:18;3.08;;;1.42;;
6527;SDS011;64597;42.664;23.256;2023-02-20T04:47:44;2.55;;;1.25;;
6527;SDS011;64597;42.664;23.256;2023-02-20T04:50:18;2.25;;;1.02;;
6527;SDS011;64597;42.664;23.256;2023-02-20T04:52:49;2.38;;;1.25;;
6527;SDS011;64597;42.664;23.256;2023-02-20T04:55:15;1.90;;;1.30;;
6527;SDS011;64597;42.664;23.256;2023-02-20T04:57:40;2.13;;;1.83;;
6527;SDS011;64597;42.664;23.256;2023-02-20T05:00:07;1.42;;;1.00;;
6527;SDS011;64597;42.664;23.256;2023-02-20T05:02:36;1.60;;;1.02;;
6527;SDS011;64597;42.664;23.256;2023-02-20T05:05:02;2.00;;;1.10;;
6527;SDS011;64597;42.664;23.256;2023-02-20T05:07:28;2.15;;;1.00;;
6527;SDS011;64597;42.664;23.256;2023-02-20T05:09:54;2.95;;;1.00;;
6527;SDS011;64597;42.664;23.256;2023-02-20T05:12:19;1.60;;;1.10;;
6527;SDS011;64597;42.664;23.256;2023-02-20T05:14:44;1.83;;;1.13;;
6527;SDS011;64597;42.664;23.256;2023-02-20T05:17:10;2.65;;;1.25;;
6527;SDS011;64597;42.664;23.256;2023-02-20T05:19:35;3.55;;;1.40;;
6527;SDS011;64597;42.664;23.256;2023-02-20T05:22:01;2.95;;;1.27;;
6527;SDS011;64597;42.664;23.256;2023-02-20T05:24:46;1.50;;;1.30;;
6527;SDS011;64597;42.664;23.256;2023-02-20T05:27:13;3.35;;;1.80;;
6527;SDS011;64597;42.664;23.256;2023-02-20T05:29:47;2.42;;;1.40;;
6527;SDS011;64597;42.664;23.256;2023-02-20T05:32:14;3.80;;;1.75;;
6527;SDS011;64597;42.664;23.256;2023-02-20T05:34:44;5.15;;;2.28;;
6527;SDS011;64597;42.664;23.256;2023-02-20T05:37:11;5.38;;;2.40;;
6527;SDS011;64597;42.664;23.256;2023-02-20T05:39:38;4.93;;;2.50;;
6527;SDS011;64597;42.664;23.256;2023-02-20T05:42:04;3.83;;;1.98;;
6527;SDS011;64597;42.664;23.256;2023-02-20T05:44:30;4.47;;;1.88;;
6527;SDS011;64597;42.664;23.256;2023-02-20T05:46:56;2.80;;;2.03;;
6527;SDS011;64597;42.664;23.256;2023-02-20T05:49:22;2.50;;;2.28;;
6527;SDS011;64597;42.664;23.256;2023-02-20T05:51:48;2.83;;;2.03;;
6527;SDS011;64597;42.664;23.256;2023-02-20T05:54:15;3.35;;;2.45;;
6527;SDS011;64597;42.664;23.256;2023-02-20T05:56:43;3.17;;;2.05;;
6527;SDS011;64597;42.664;23.256;2023-02-20T05:59:10;3.47;;;2.15;;
6527;SDS011;64597;42.664;23.256;2023-02-20T06:01:36;3.40;;;1.80;;
6527;SDS011;64597;42.664;23.256;2023-02-20T06:04:02;3.40;;;2.80;;
6527;SDS011;64597;42.664;23.256;2023-02-20T06:06:33;4.10;;;2.42;;
6527;SDS011;64597;42.664;23.256;2023-02-20T06:09:01;3.47;;;1.92;;
6527;SDS011;64597;42.664;23.256;2023-02-20T06:11:28;2.53;;;1.85;;
6527;SDS011;64597;42.664;23.256;2023-02-20T06:13:53;3.85;;;2.15;;
6527;SDS011;64597;42.664;23.256;2023-02-20T06:16:23;3.25;;;2.40;;
6527;SDS011;64597;42.664;23.256;2023-02-20T06:18:50;3.30;;;2.10;;
6527;SDS011;64597;42.664;23.256;2023-02-20T06:21:15;3.13;;;1.73;;
6527;SDS011;64597;42.664;23.256;2023-02-20T06:23:42;2.35;;;1.70;;
6527;SDS011;64597;42.664;23.256;2023-02-20T06:26:10;4.75;;;2.38;;
6527;SDS011;64597;42.664;23.256;2023-02-20T06:28:36;3.60;;;1.98;;
6527;SDS011;64597;42.664;23.256;2023-02-20T06:31:03;2.20;;;1.52;;
6527;SDS011;64597;42.664;23.256;2023-02-20T06:33:29;4.63;;;2.08;;
6527;SDS011;64597;42.664;23.256;2023-02-20T06:35:54;5.72;;;2.42;;
6527;SDS011;64597;42.664;23.256;2023-02-20T06:38:21;3.47;;;1.98;;
6527;SDS011;64597;42.664;23.256;2023-02-20T06:40:47;3.05;;;1.83;;
6527;SDS011;64597;42.664;23.256;2023-02-20T06:43:16;7.07;;;2.08;;
6527;SDS011;64597;42.664;23.256;2023-02-20T06:45:41;3.35;;;2.25;;
6527;SDS011;64597;42.664;23.256;2023-02-20T06:48:07;2.15;;;1.90;;
6527;SDS011;64597;42.664;23.256;2023-02-20T06:50:33;2.17;;;1.88;;
6527;SDS011;64597;42.664;23.256;2023-02-20T06:52:58;1.80;;;1.50;;
6527;SDS011;64597;42.664;23.256;2023-02-20T06:55:24;3.38;;;1.88;;
6527;SDS011;64597;42.664;23.256;2023-02-20T06:57:49;3.65;;;1.80;;
6527;SDS011;64597;42.664;23.256;2023-02-20T07:00:15;2.42;;;2.00;;
6527;SDS011;64597;42.664;23.256;2023-02-20T07:02:42;2.50;;;1.90;;
6527;SDS011;64597;42.664;23.256;2023-02-20T07:05:07;3.90;;;1.85;;
6527;SDS011;64597;42.664;23.256;2023-02-20T07:07:35;6.78;;;2.30;;
6527;SDS011;64597;42.664;23.256;2023-02-20T07:10:01;2.78;;;1.70;;
6527;SDS011;64597;42.664;23.256;2023-02-20T07:12:30;3.42;;;1.90;;
6527;SDS011;64597;42.664;23.256;2023-02-20T07:14:56;2.75;;;1.50;;
6527;SDS011;64597;42.664;23.256;2023-02-20T07:17:21;1.77;;;1.20;;
6527;SDS011;64597;42.664;23.256;2023-02-20T07:19:47;3.78;;;1.80;;
6527;SDS011;64597;42.664;23.256;2023-02-20T07:22:12;2.58;;;1.55;;
6527;SDS011;64597;42.664;23.256;2023-02-20T07:24:38;2.78;;;1.17;;
6527;SDS011;64597;42.664;23.256;2023-02-20T07:27:05;1.95;;;1.20;;
6527;SDS011;64597;42.664;23.256;2023-02-20T07:29:32;5.55;;;1.30;;
6527;SDS011;64597;42.664;23.256;2023-02-20T07:31:57;3.55;;;1.30;;
6527;SDS011;64597;42.664;23.256;2023-02-20T07:34:23;2.10;;;1.08;;
6527;SDS011;64597;42.664;23.256;2023-02-20T07:36:48;3.13;;;1.35;;
6527;SDS011;64597;42.664;23.256;2023-02-20T07:39:13;2.28;;;1.23;;
6527;SDS011;64597;42.664;23.256;2023-02-20T07:41:39;1.92;;;1.20;;
6527;SDS011;64597;42.664;23.256;2023-02-20T07:44:05;1.83;;;0.93;;
6527;SDS011;64597;42.664;23.256;2023-02-20T07:46:31;1.75;;;1.20;;
6527;SDS011;64597;42.664;23.256;2023-02-20T07:49:01;1.98;;;0.98;;
6527;SDS011;64597;42.664;23.256;2023-02-20T07:51:28;1.27;;;0.70;;
6527;SDS011;64597;42.664;23.256;2023-02-20T07:53:54;1.55;;;0.70;;
6527;SDS011;64597;42.664;23.256;2023-02-20T07:56:20;1.95;;;0.80;;
6527;SDS011;64597;42.664;23.256;2023-02-20T07:58:46;1.40;;;0.85;;
6527;SDS011;64597;42.664;23.256;2023-02-20T08:01:12;2.90;;;0.70;;
6527;SDS011;64597;42.664;23.256;2023-02-20T08:03:38;1.08;;;0.55;;
6527;SDS011;64597;42.664;23.256;2023-02-20T08:06:03;0.98;;;0.70;;
6527;SDS011;64597;42.664;23.256;2023-02-20T08:08:29;2.13;;;0.80;;
6527;SDS011;64597;42.664;23.256;2023-02-20T08:10:55;1.73;;;0.38;;
6527;SDS011;64597;42.664;23.256;2023-02-20T08:13:20;2.80;;;0.73;;
6527;SDS011;64597;42.664;23.256;2023-02-20T08:15:46;2.42;;;0.60;;
6527;SDS011;64597;42.664;23.256;2023-02-20T08:18:12;2.45;;;1.00;;
6527;SDS011;64597;42.664;23.256;2023-02-20T08:20:38;1.75;;;0.82;;
6527;SDS011;64597;42.664;23.256;2023-02-20T08:23:04;0.90;;;0.50;;
6527;SDS011;64597;42.664;23.256;2023-02-20T08:25:30;0.93;;;0.52;;
6527;SDS011;64597;42.664;23.256;2023-02-20T08:27:56;5.05;;;0.90;;
6527;SDS011;64597;42.664;23.256;2023-02-20T08:30:24;2.22;;;0.65;;
6527;SDS011;64597;42.664;23.256;2023-02-20T08:32:51;4.20;;;0.85;;
6527;SDS011;64597;42.664;23.256;2023-02-20T08:35:18;2.15;;;0.80;;
6527;SDS011;64597;42.664;23.256;2023-02-20T08:37:44;5.47;;;1.00;;
6527;SDS011;64597;42.664;23.256;2023-02-20T08:40:10;3.10;;;0.77;;
6527;SDS011;64597;42.664;23.256;2023-02-20T08:42:36;1.70;;;0.88;;
6527;SDS011;64597;42.664;23.256;2023-02-20T08:45:05;1.90;;;0.85;;
6527;SDS011;64597;42.664;23.256;2023-02-20T08:47:32;2.90;;;0.50;;
6527;SDS011;64597;42.664;23.256;2023-02-20T08:49:57;1.17;;;0.50;;
6527;SDS011;64597;42.664;23.256;2023-02-20T08:52:23;0.82;;;0.52;;
6527;SDS011;64597;42.664;23.256;2023-02-20T08:54:48;3.17;;;0.98;;
6527;SDS011;64597;42.664;23.256;2023-02-20T08:57:14;1.15;;;0.60;;
6527;SDS011;64597;42.664;23.256;2023-02-20T08:59:40;1.30;;;0.50;;
6527;SDS011;64597;42.664;23.256;2023-02-20T09:02:06;1.42;;;0.45;;
6527;SDS011;64597;42.664;23.256;2023-02-20T09:04:32;3.03;;;0.70;;
6527;SDS011;64597;42.664;23.256;2023-02-20T09:06:58;2.88;;;0.90;;
6527;SDS011;64597;42.664;23.256;2023-02-20T09:09:23;2.75;;;0.80;;
6527;SDS011;64597;42.664;23.256;2023-02-20T09:11:49;1.75;;;0.55;;
6527;SDS011;64597;42.664;23.256;2023-02-20T09:14:14;1.33;;;0.70;;
6527;SDS011;64597;42.664;23.256;2023-02-20T09:16:40;2.25;;;1.08;;
6527;SDS011;64597;42.664;23.256;2023-02-20T09:19:09;4.78;;;1.15;;
6527;SDS011;64597;42.664;23.256;2023-02-20T09:21:34;1.42;;;0.60;;
6527;SDS011;64597;42.664;23.256;2023-02-20T09:24:00;1.67;;;0.60;;
6527;SDS011;64597;42.664;23.256;2023-02-20T09:26:26;5.38;;;1.23;;
6527;SDS011;64597;42.664;23.256;2023-02-20T09:28:51;1.98;;;0.63;;
6527;SDS011;64597;42.664;23.256;2023-02-20T09:31:16;2.00;;;0.63;;
6527;SDS011;64597;42.664;23.256;2023-02-20T09:33:45;1.02;;;0.70;;
6527;SDS011;64597;42.664;23.256;2023-02-20T09:36:11;1.85;;;0.63;;
6527;SDS011;64597;42.664;23.256;2023-02-20T09:38:37;14.52;;;1.13;;
6527;SDS011;64597;42.664;23.256;2023-02-20T09:41:02;1.63;;;0.60;;
6527;SDS011;64597;42.664;23.256;2023-02-20T09:43:47;4.88;;;1.10;;
6527;SDS011;64597;42.664;23.256;2023-02-20T09:46:15;0.55;;;0.43;;
6527;SDS011;64597;42.664;23.256;2023-02-20T09:51:40;1.67;;;0.50;;
6527;SDS011;64597;42.664;23.256;2023-02-20T09:54:13;2.38;;;0.70;;
6527;SDS011;64597;42.664;23.256;2023-02-20T09:56:48;2.20;;;0.90;;
6527;SDS011;64597;42.664;23.256;2023-02-20T09:59:18;2.10;;;0.85;;
6527;SDS011;64597;42.664;23.256;2023-02-20T10:01:56;3.42;;;0.75;;
6527;SDS011;64597;42.664;23.256;2023-02-20T10:04:30;1.63;;;0.98;;
6527;SDS011;64597;42.664;23.256;2023-02-20T10:07:07;1.63;;;0.80;;
6527;SDS011;64597;42.664;23.256;2023-02-20T10:09:45;1.45;;;0.30;;
6527;SDS011;64597;42.664;23.256;2023-02-20T10:15:17;0.75;;;0.43;;
6527;SDS011;64597;42.664;23.256;2023-02-20T10:25:50;1.38;;;0.50;;
6527;SDS011;64597;42.664;23.256;2023-02-20T10:28:19;2.50;;;1.00;;
6527;SDS011;64597;42.664;23.256;2023-02-20T10:30:49;2.60;;;0.82;;
6527;SDS011;64597;42.664;23.256;2023-02-20T10:33:35;7.63;;;1.27;;
6527;SDS011;64597;42.664;23.256;2023-02-20T10:50:08;0.80;;;0.50;;
6527;SDS011;64597;42.664;23.256;2023-02-20T10:52:48;0.95;;;0.70;;
6527;SDS011;64597;42.664;23.256;2023-02-20T10:57:56;1.95;;;0.70;;
6527;SDS011;64597;42.664;23.256;2023-02-20T11:00:32;1.90;;;0.68;;
6527;SDS011;64597;42.664;23.256;2023-02-20T11:03:10;0.90;;;0.45;;
6527;SDS011;64597;42.664;23.256;2023-02-20T11:05:45;1.30;;;0.60;;
6527;SDS011;64597;42.664;23.256;2023-02-20T11:08:15;0.90;;;0.60;;
6527;SDS011;64597;42.664;23.256;2023-02-20T11:10:45;3.38;;;0.65;;
6527;SDS011;64597;42.664;23.256;2023-02-20T11:13:16;4.97;;;0.70;;
6527;SDS011;64597;42.664;23.256;2023-02-20T11:15:46;1.25;;;0.50;;
6527;SDS011;64597;42.664;23.256;2023-02-20T11:18:22;1.70;;;0.63;;
6527;SDS011;64597;42.664;23.256;2023-02-20T11:20:51;1.27;;;0.82;;
6527;SDS011;64597;42.664;23.256;2023-02-20T11:28:59;7.35;;;0.98;;
6527;SDS011;64597;42.664;23.256;2023-02-20T11:31:26;1.13;;;0.80;;
6527;SDS011;64597;42.664;23.256;2023-02-20T11:33:53;1.20;;;0.60;;
6527;SDS011;64597;42.664;23.256;2023-02-20T11:36:21;4.57;;;0.60;;
6527;SDS011;64597;42.664;23.256;2023-02-20T11:38:55;1.77;;;0.60;;
6527;SDS011;64597;42.664;23.256;2023-02-20T11:41:30;1.70;;;0.90;;
6527;SDS011;64597;42.664;23.256;2023-02-20T11:46:38;0.77;;;0.50;;
6527;SDS011;64597;42.664;23.256;2023-02-20T11:49:08;3.15;;;0.90;;
6527;SDS011;64597;42.664;23.256;2023-02-20T11:51:43;1.10;;;0.90;;
6527;SDS011;64597;42.664;23.256;2023-02-20T11:54:17;1.10;;;0.70;;
6527;SDS011;64597;42.664;23.256;2023-02-20T11:59:43;1.15;;;0.73;;
6527;SDS011;64597;42.664;23.256;2023-02-20T12:12:57;0.82;;;0.43;;
6527;SDS011;64597;42.664;23.256;2023-02-20T12:15:24;3.20;;;0.60;;
6527;SDS011;64597;42.664;23.256;2023-02-20T12:18:01;1.85;;;0.50;;
6527;SDS011;64597;42.664;23.256;2023-02-20T12:20:48;1.05;;;0.60;;
6527;SDS011;64597;42.664;23.256;2023-02-20T12:42:19;1.25;;;0.40;;
6527;SDS011;64597;42.664;23.256;2023-02-20T12:47:40;1.27;;;0.40;;
6527;SDS011;64597;42.664;23.256;2023-02-20T13:00:46;1.17;;;0.60;;
6527;SDS011;64597;42.664;23.256;2023-02-20T13:03:19;2.45;;;0.60;;
6527;SDS011;64597;42.664;23.256;2023-02-20T13:05:49;0.82;;;0.50;;
6527;SDS011;64597;42.664;23.256;2023-02-20T13:10:57;0.60;;;0.55;;
6527;SDS011;64597;42.664;23.256;2023-02-20T13:13:29;3.17;;;0.95;;
6527;SDS011;64597;42.664;23.256;2023-02-20T13:16:10;1.40;;;0.60;;
6527;SDS011;64597;42.664;23.256;2023-02-20T13:18:53;0.93;;;0.80;;
6527;SDS011;64597;42.664;23.256;2023-02-20T13:21:41;0.52;;;0.40;;
6527;SDS011;64597;42.664;23.256;2023-02-20T13:27:02;2.05;;;0.88;;
6527;SDS011;64597;42.664;23.256;2023-02-20T13:29:31;2.08;;;0.43;;
6527;SDS011;64597;42.664;23.256;2023-02-20T13:32:03;8.82;;;1.30;;
6527;SDS011;64597;42.664;23.256;2023-02-20T13:34:48;1.20;;;0.60;;
6527;SDS011;64597;42.664;23.256;2023-02-20T13:38:17;3.97;;;1.00;;
6527;SDS011;64597;42.664;23.256;2023-02-20T13:45:45;1.48;;;0.55;;
6527;SDS011;64597;42.664;23.256;2023-02-20T13:51:40;0.70;;;0.55;;
6527;SDS011;64597;42.664;23.256;2023-02-20T13:53:41;2.22;;;0.70;;
6527;SDS011;64597;42.664;23.256;2023-02-20T13:58:53;4.38;;;0.80;;
6527;SDS011;64597;42.664;23.256;2023-02-20T14:01:21;5.50;;;1.17;;
6527;SDS011;64597;42.664;23.256;2023-02-20T14:03:58;1.45;;;0.70;;
6527;SDS011;64597;42.664;23.256;2023-02-20T14:06:25;4.13;;;1.42;;
6527;SDS011;64597;42.664;23.256;2023-02-20T14:08:52;5.75;;;1.30;;
6527;SDS011;64597;42.664;23.256;2023-02-20T14:11:34;1.55;;;0.98;;
6527;SDS011;64597;42.664;23.256;2023-02-20T14:14:05;5.63;;;0.82;;
6527;SDS011;64597;42.664;23.256;2023-02-20T14:17:14;1.08;;;0.47;;
6527;SDS011;64597;42.664;23.256;2023-02-20T14:19:44;1.52;;;0.73;;
6527;SDS011;64597;42.664;23.256;2023-02-20T14:22:13;1.92;;;0.88;;
6527;SDS011;64597;42.664;23.256;2023-02-20T14:24:45;2.55;;;1.00;;
6527;SDS011;64597;42.664;23.256;2023-02-20T14:27:23;1.05;;;0.60;;
6527;SDS011;64597;42.664;23.256;2023-02-20T14:32:33;1.02;;;0.60;;
6527;SDS011;64597;42.664;23.256;2023-02-20T14:37:32;1.50;;;0.50;;
6527;SDS011;64597;42.664;23.256;2023-02-20T14:40:16;1.10;;;0.50;;
6527;SDS011;64597;42.664;23.256;2023-02-20T14:42:47;1.27;;;0.60;;
6527;SDS011;64597;42.664;23.256;2023-02-20T14:45:14;2.10;;;0.60;;
6527;SDS011;64597;42.664;23.256;2023-02-20T14:47:54;1.45;;;0.80;;
6527;SDS011;64597;42.664;23.256;2023-02-20T14:50:29;1.98;;;0.90;;
6527;SDS011;64597;42.664;23.256;2023-02-20T14:53:16;1.42;;;1.30;;
6527;SDS011;64597;42.664;23.256;2023-02-20T14:55:45;1.50;;;1.10;;
6527;SDS011;64597;42.664;23.256;2023-02-20T14:58:14;0.88;;;0.65;;
6527;SDS011;64597;42.664;23.256;2023-02-20T15:00:42;1.20;;;0.75;;
6527;SDS011;64597;42.664;23.256;2023-02-20T15:03:29;2.45;;;1.00;;
6527;SDS011;64597;42.664;23.256;2023-02-20T15:05:54;2.50;;;1.10;;
6527;SDS011;64597;42.664;23.256;2023-02-20T15:08:30;1.35;;;0.63;;
6527;SDS011;64597;42.664;23.256;2023-02-20T15:10:57;1.40;;;0.50;;
6527;SDS011;64597;42.664;23.256;2023-02-20T15:13:35;0.80;;;0.52;;
6527;SDS011;64597;42.664;23.256;2023-02-20T15:16:14;0.82;;;0.70;;
6527;SDS011;64597;42.664;23.256;2023-02-20T15:18:51;2.90;;;0.70;;
6527;SDS011;64597;42.664;23.256;2023-02-20T15:26:48;0.40;;;0.40;;
6527;SDS011;64597;42.664;23.256;2023-02-20T15:31:42;1.77;;;0.60;;
6527;SDS011;64597;42.664;23.256;2023-02-20T15:34:11;1.40;;;0.60;;
6527;SDS011;64597;42.664;23.256;2023-02-20T15:36:41;2.55;;;1.00;;
6527;SDS011;64597;42.664;23.256;2023-02-20T15:39:08;2.08;;;0.82;;
6527;SDS011;64597;42.664;23.256;2023-02-20T15:41:35;2.20;;;0.88;;
6527;SDS011;64597;42.664;23.256;2023-02-20T15:44:00;1.45;;;0.82;;
6527;SDS011;64597;42.664;23.256;2023-02-20T15:46:27;0.88;;;0.60;;
6527;SDS011;64597;42.664;23.256;2023-02-20T15:48:52;1.83;;;0.90;;
6527;SDS011;64597;42.664;23.256;2023-02-20T15:51:19;4.10;;;1.00;;
6527;SDS011;64597;42.664;23.256;2023-02-20T15:53:46;1.52;;;0.80;;
6527;SDS011;64597;42.664;23.256;2023-02-20T15:56:14;3.17;;;0.93;;
6527;SDS011;64597;42.664;23.256;2023-02-20T15:58:41;2.60;;;0.82;;
6527;SDS011;64597;42.664;23.256;2023-02-20T16:01:07;1.35;;;0.93;;
6527;SDS011;64597;42.664;23.256;2023-02-20T16:03:32;1.77;;;0.82;;
6527;SDS011;64597;42.664;23.256;2023-02-20T16:05:58;2.45;;;1.25;;
6527;SDS011;64597;42.664;23.256;2023-02-20T16:08:24;0.98;;;0.80;;
6527;SDS011;64597;42.664;23.256;2023-02-20T16:10:51;2.00;;;0.90;;
6527;SDS011;64597;42.664;23.256;2023-02-20T16:13:29;1.92;;;0.88;;
6527;SDS011;64597;42.664;23.256;2023-02-20T16:15:57;2.97;;;0.93;;
6527;SDS011;64597;42.664;23.256;2023-02-20T16:18:23;1.98;;;1.05;;
6527;SDS011;64597;42.664;23.256;2023-02-20T16:20:49;1.70;;;0.90;;
6527;SDS011;64597;42.664;23.256;2023-02-20T16:23:16;2.80;;;1.02;;
6527;SDS011;64597;42.664;23.256;2023-02-20T16:25:41;2.22;;;0.98;;
6527;SDS011;64597;42.664;23.256;2023-02-20T16:28:07;2.35;;;0.98;;
6527;SDS011;64597;42.664;23.256;2023-02-20T16:30:37;1.30;;;1.15;;
6527;SDS011;64597;42.664;23.256;2023-02-20T16:35:41;2.20;;;1.08;;
6527;SDS011;64597;42.664;23.256;2023-02-20T16:38:07;2.88;;;1.45;;
6527;SDS011;64597;42.664;23.256;2023-02-20T16:40:33;1.90;;;1.10;;
6527;SDS011;64597;42.664;23.256;2023-02-20T16:42:58;2.42;;;1.05;;
6527;SDS011;64597;42.664;23.256;2023-02-20T16:45:24;1.60;;;0.80;;
6527;SDS011;64597;42.664;23.256;2023-02-20T16:47:50;2.20;;;1.42;;
6527;SDS011;64597;42.664;23.256;2023-02-20T16:50:19;2.85;;;1.40;;
6527;SDS011;64597;42.664;23.256;2023-02-20T16:52:48;4.00;;;1.50;;
6527;SDS011;64597;42.664;23.256;2023-02-20T16:57:49;1.48;;;0.98;;
6527;SDS011;64597;42.664;23.256;2023-02-20T17:00:16;2.72;;;1.00;;
6527;SDS011;64597;42.664;23.256;2023-02-20T17:02:47;1.98;;;0.93;;
6527;SDS011;64597;42.664;23.256;2023-02-20T17:05:12;2.00;;;1.25;;
6527;SDS011;64597;42.664;23.256;2023-02-20T17:07:38;3.15;;;1.40;;
6527;SDS011;64597;42.664;23.256;2023-02-20T17:10:05;3.53;;;1.70;;
6527;SDS011;64597;42.664;23.256;2023-02-20T17:12:31;3.53;;;1.60;;
6527;SDS011;64597;42.664;23.256;2023-02-20T17:15:01;3.95;;;1.42;;
6527;SDS011;64597;42.664;23.256;2023-02-20T17:17:29;3.47;;;1.73;;
6527;SDS011;64597;42.664;23.256;2023-02-20T17:19:57;4.32;;;1.90;;
6527;SDS011;64597;42.664;23.256;2023-02-20T17:22:24;3.88;;;1.73;;
6527;SDS011;64597;42.664;23.256;2023-02-20T17:24:51;5.45;;;1.85;;
6527;SDS011;64597;42.664;23.256;2023-02-20T17:27:17;5.47;;;1.60;;